Tiempo atmosférico en la estación meteorológica de Aguilar De Campoo, Palencia (910 m.)

Fecha
DESCASC
Temp. máxima en grados centígrados (hora)
DESCASC
Temp. mínima en grados centígrados (hora)
DESCASC
Temp. media en grados centígrados
DESCASC
Racha de viento máxima en m/sg (hora)
DESCASC
Velocidad máxima media en intervalos de 10 minutos(hora)
DESCASC
Precipitaciones diarias en mm
DESCASC
Precipitaciones de 00:00 a 06:00 en mm
DESCASC
Precipitaciones de 06:00 a 12:00 en mm
DESCASC
Precipitaciones de 12:00 a 18:00 en mm
DESCASC
Precipitaciones de 18:00 a 24:00 en mm
DESCASC
17-08-2017 32.5 (16:30) 9.4 (08:10) 20.9 11.39 (17:10) 6.94 (17:20) 0 0 0 0 0
16-08-2017 28.6 (16:00) 9.5 (07:50) 19.1 12.5 (18:30) 6.11 (17:10) 0 0 0 0 0
15-08-2017 25.9 (14:40) 14 (00:00) 19.9 14.72 (18:00) 8.33 (17:30) 0 0 0 0 0
14-08-2017 33 (16:50) 8.4 (07:40) 20.7 10.56 (19:50) 5.56 (18:10) 0 0 0 0 0
13-08-2017 30 (16:00) 7.5 (00:00) 18.8 9.72 (18:30) 5.56 (18:20) 0 0 0 0 0
12-08-2017 27.3 (15:40) 4.3 (00:00) 15.8 10.83 (18:40) 6.94 (18:40) 0 0 0 0 0
11-08-2017 21.7 (17:10) 6 (00:00) 13.9 11.67 (18:20) 6.67 (19:00) 0 0 0 0 0
10-08-2017 19.7 (15:40) 2.8 (00:00) 11.3 13.89 (14:30) 7.22 (18:10) 0 0 0 0 0
09-08-2017 19.3 (14:40) 6.6 (00:00) 12.9 13.06 (14:20) 5.83 (13:50) 0 0 0 0 0
08-08-2017 19.3 (14:30) 9.3 (00:00) 14.3 11.94 (15:00) 6.39 (17:20) 0 0 0 0 0
07-08-2017 28.5 (15:20) 11.1 (00:00) 19.8 12.5 (17:00) 7.22 (16:50) 0 0 0 0 0
06-08-2017 20 (16:30) 11.8 (00:00) 15.9 13.89 (10:30) 7.78 (14:10) 0 0 0 0 0
05-08-2017 21.4 (13:20) 13 (00:00) 17.2 13.61 (14:30) 8.06 (14:10) 0 0 0 0 0
04-08-2017 33.8 (16:50) 11.6 (00:00) 22.7 11.11 (18:50) 6.11 (18:30) 0 0 0 0 0
03-08-2017 31.8 (16:50) 9.4 (00:00) 20.6 12.22 (20:50) 6.67 (20:00) 0 0 0 0 0
02-08-2017 31.4 (17:20) 10.5 (00:00) 20.9 9.44 (14:50) 5 (14:30) 0 0 0 0 0
01-08-2017 25.2 (16:30) 12.5 (00:00) 18.9 10.56 (17:30) 6.11 (19:30) 0 0 0 0 0
31-07-2017 24.7 (16:50) 11 (00:00) 17.9 11.67 (18:20) 6.67 (18:20) 0 0 0 0 0
30-07-2017 29.6 (16:20) 12.4 (00:00) 21 14.44 (17:50) 8.33 (17:50) 0 0 0 0 0
29-07-2017 32.1 (17:50) 11.4 (00:00) 21.7 11.67 (17:20) 5.56 (18:40) 0 0 0 0 0
28-07-2017 31.4 (17:30) 16.5 (00:00) 23.9 12.22 (19:00) 6.39 (19:30) 0 0 0 0 0
27-07-2017 31.6 (15:40) 9.4 (00:00) 20.5 12.78 (15:40) 6.94 (17:00) 0 0 0 0 0
26-07-2017 28.1 (16:20) 7.4 (00:00) 17.8 9.17 (17:10) 5.28 (17:10) 0 0 0 0 0
25-07-2017 20.4 (15:50) 6.6 (00:00) 13.5 13.89 (18:30) 7.5 (18:30) 0 0 0 0 0
24-07-2017 22 (13:10) 10.1 (00:00) 16.1 13.89 (20:40) 7.22 (20:40) 0 0 0 0 0
23-07-2017 25.4 (15:50) 8.7 (00:00) 17 11.39 (17:30) 6.67 (17:40) 0 0 0 0 0
22-07-2017 27.1 (16:30) 8.6 (00:00) 17.9 13.33 (18:40) 8.33 (18:10) 0 0 0 0 0
21-07-2017 22.9 (14:50) 11.2 (00:00) 17 13.89 (18:30) 6.94 (18:30) 0 0 0 0 0
20-07-2017 20.3 (15:50) 11.2 (00:00) 15.7 12.22 (17:40) 6.39 (17:40) 0 0 0 0 0
19-07-2017 28.4 (16:50) 12.6 (00:00) 20.5 11.94 (15:20) 6.67 (18:30) 0 0 0 0 0

Gráficas

Temp. máximas Temp. mínimas Temp. medias Precipitaciones Rachas de viento máximas Velocidades máximas media en intervalos de 10 minutos

Datos horarios

Fecha y hora oficial Temperatura (ºC) Velocidad del viento (km/h) Dirección del viento Racha (km/h) Dirección de racha Precipitación (mm) Presión (hPa) Tendencia (hPa) Humedad (%)
2017-08-17 23:00:00 19.9 10 Este 20 Este 0 -- -- 64
2017-08-17 22:00:00 21.1 9 Este 24 Este 0 -- -- 58
2017-08-17 21:00:00 23.1 12 Este 26 Sudeste 0 -- -- 54
2017-08-17 20:00:00 25.2 15 Este 32 Este 0 -- -- 47
2017-08-17 19:00:00 26.7 21 Este 40 Este 0 -- -- 48
2017-08-17 18:00:00 27.7 21 Este 41 Sudeste 0 -- -- 48
2017-08-17 17:00:00 29.8 21 Este 39 Este 0 -- -- 44
2017-08-17 16:00:00 32.3 9 Oeste 30 Oeste 0 -- -- 30
2017-08-17 15:00:00 31.2 8 Sudoeste 26 Sudoeste 0 -- -- 33
2017-08-17 14:00:00 29.8 7 Oeste 23 Sudeste 0 -- -- 35
2017-08-17 13:00:00 27.7 9 Sudoeste 23 Sur 0 -- -- 39
2017-08-17 12:00:00 24.4 4 Nordeste 11 Sudeste 0 -- -- 50
2017-08-17 11:00:00 21.1 3 Sur 9 Sur 0 -- -- 59
2017-08-17 10:00:00 17.4 5 Sudoeste 9 Oeste 0 -- -- 78
2017-08-17 09:00:00 12.9 4 Nordeste 9 Nordeste 0 -- -- 89
2017-08-17 08:00:00 9.5 0 Calma 6 Nordeste 0 -- -- 93
2017-08-17 07:00:00 10.3 5 Nordeste 17 Nordeste 0 -- -- 95
2017-08-17 06:00:00 10.4 5 Norte 12 Nordeste 0 -- -- 93
2017-08-17 05:00:00 11 0 Calma 11 Norte 0 -- -- 89
2017-08-17 04:00:00 11.8 7 Nordeste 12 Norte 0 -- -- 88
2017-08-17 03:00:00 12.7 3 Norte 10 Este 0 -- -- 80
2017-08-17 02:00:00 14.2 5 Este 20 Este 0 -- -- 73
2017-08-17 01:00:00 15.2 12 Este 22 Sudeste 0 -- -- 73
2017-08-17 00:00:00 15.7 11 Este 19 Sudeste 0 -- -- 80
2017-08-16 23:00:00 16.7 13 Este 26 Sudeste 0 -- -- 83
2017-08-16 22:00:00 17.4 13 Este 33 Este 0 -- -- 84
2017-08-16 21:00:00 19.5 17 Este 34 Este 0 -- -- 75
2017-08-16 20:00:00 21.4 15 Este 35 Este 0 -- -- 67
2017-08-16 19:00:00 22.8 19 Este 45 Este 0 -- -- 63
2017-08-16 18:00:00 24.9 16 Este 41 Este 0 -- -- 56
2017-08-16 17:00:00 26.6 19 Este 38 Este 0 -- -- 47
2017-08-16 16:00:00 28.6 5 Sudoeste 17 Sudeste 0 -- -- 32
2017-08-16 15:00:00 27 8 Este 18 Este 0 -- -- 34
2017-08-16 14:00:00 25.3 6 Sudoeste 14 Oeste 0 -- -- 37
2017-08-16 13:00:00 23.1 6 Sur 13 Sudeste 0 -- -- 50
2017-08-16 12:00:00 20.7 4 Sur 10 Sur 0 -- -- 60
2017-08-16 11:00:00 18 6 Sur 10 Sur 0 -- -- 71
2017-08-16 10:00:00 14.6 3 Sur 9 Oeste 0 -- -- 88
2017-08-16 09:00:00 10.7 5 Nordeste 14 Nordeste 0 -- -- 99
2017-08-16 08:00:00 9.6 7 Nordeste 11 Nordeste 0 -- -- 97
2017-08-16 07:00:00 9.8 7 Nordeste 11 Norte 0 -- -- 95
2017-08-16 06:00:00 10.9 5 Nordeste 9 Nordeste 0 -- -- 94
2017-08-16 05:00:00 12.6 2 Nordeste 15 Sudeste 0 -- -- 91
2017-08-16 04:00:00 13.4 4 Este 12 Sudeste 0 -- -- 91
2017-08-16 03:00:00 13.8 6 Sudeste 13 Este 0 -- -- 91
2017-08-16 02:00:00 13.9 6 Sudeste 14 Sudeste 0 -- -- 90
2017-08-16 01:00:00 14 9 Sudeste 23 Sudeste 0 -- -- 90
2017-08-16 00:00:00 14 12 Este 26 Sudeste 0 -- -- 91
2017-08-15 23:00:00 14.1 13 Este 26 Este 0 -- -- 92
2017-08-15 22:00:00 14.5 10 Este 27 Este 0 -- -- 90
2017-08-15 21:00:00 15.4 14 Este 40 Este 0 -- -- 85
2017-08-15 20:00:00 17.3 18 Este 40 Este 0 -- -- 78
2017-08-15 19:00:00 19.7 15 Este 39 Este 0 -- -- 70
2017-08-15 18:00:00 20.6 19 Este 53 Sudeste 0 -- -- 68
2017-08-15 17:00:00 21.8 22 Este 43 Este 0 -- -- 63
2017-08-15 16:00:00 23.1 27 Este 45 Este 0 -- -- 60
2017-08-15 15:00:00 25.7 17 Este 28 Este 0 -- -- 52
2017-08-15 14:00:00 24.7 9 Sudeste 19 Sudeste 0 -- -- 52
2017-08-15 13:00:00 22.3 8 Sudeste 22 Sudeste 0 -- -- 60
2017-08-15 12:00:00 20 10 Sudeste 23 Este 0 -- -- 70
2017-08-15 11:00:00 17.8 11 Este 26 Este 0 -- -- 80
2017-08-15 10:00:00 17.1 15 Este 26 Este 0 -- -- 82
2017-08-15 09:00:00 15.3 9 Este 20 Este 0 -- -- 92
2017-08-15 08:00:00 14.3 8 Este 20 Este 0 -- -- 93
2017-08-15 07:00:00 14.4 6 Este 18 Este 0 -- -- 91
2017-08-15 06:00:00 14.7 8 Este 19 Sudeste 0 -- -- 91
2017-08-15 05:00:00 15.1 10 Este 21 Este 0 -- -- 89
2017-08-15 04:00:00 15.9 11 Este 26 Este 0 -- -- 84
2017-08-15 03:00:00 16.2 9 Este 20 Este 0 -- -- 79
2017-08-15 02:00:00 16.5 0 Calma 10 Este 0 -- -- 75
2017-08-15 01:00:00 18.1 7 Este 21 Sudeste 0 -- -- 71
2017-08-15 00:00:00 18.5 8 Este 28 Este 0 -- -- 71
2017-08-14 23:00:00 19.5 10 Este 31 Este 0 -- -- 67
2017-08-14 22:00:00 20.4 19 Sudeste 37 Sudeste 0 -- -- 58
2017-08-14 21:00:00 21.4 18 Este 33 Este 0 -- -- 58
2017-08-14 20:00:00 25 17 Este 38 Este 0 -- -- 50
2017-08-14 19:00:00 31.4 11 Oeste 33 Noroeste 0 -- -- 24
2017-08-14 18:00:00 32 15 Oeste 35 Oeste 0 -- -- 22
2017-08-14 17:00:00 32.8 17 Oeste 35 Sudoeste 0 -- -- 22
2017-08-14 16:00:00 32.5 17 Oeste 36 Noroeste 0 -- -- 22
2017-08-14 15:00:00 32 19 Sudoeste 36 Sudoeste 0 -- -- 23
2017-08-14 14:00:00 30.9 13 Sudoeste 28 Sur 0 -- -- 27
2017-08-14 13:00:00 28.8 8 Sudoeste 20 Oeste 0 -- -- 31
2017-08-14 12:00:00 25.3 9 Sudoeste 19 Sudoeste 0 -- -- 41
2017-08-14 11:00:00 20.7 5 Oeste 10 Oeste 0 -- -- 60
2017-08-14 10:00:00 16.5 2 Sudoeste 4 Sur 0 -- -- 72
2017-08-14 09:00:00 12.2 3 Nordeste 9 Nordeste 0 -- -- 83
2017-08-14 08:00:00 8.5 3 Nordeste 8 Nordeste 0 -- -- 92
2017-08-14 07:00:00 8.9 4 Nordeste 8 Nordeste 0 -- -- 90
2017-08-14 06:00:00 9.5 2 Nordeste 12 Nordeste 0 -- -- 86
2017-08-14 05:00:00 10.4 6 Nordeste 12 Nordeste 0 -- -- 87
2017-08-14 04:00:00 11.4 5 Nordeste 11 Nordeste 0 -- -- 85
2017-08-14 03:00:00 12.5 6 Nordeste 12 Nordeste 0 -- -- 84
2017-08-14 02:00:00 14 3 Nordeste 8 Nordeste 0 -- -- 85
2017-08-14 01:00:00 15.8 4 Nordeste 9 Este 0 -- -- 83
2017-08-14 00:00:00 17.1 6 Este 13 Este 0 -- -- 81
2017-08-13 23:00:00 18.5 5 Este 26 Este 0 -- -- 73
2017-08-13 22:00:00 20.3 13 Este 24 Este 0 -- -- 64
2017-08-13 21:00:00 22.2 11 Este 22 Este 0 -- -- 56
2017-08-13 20:00:00 24.4 13 Este 31 Este 0 -- -- 49
2017-08-13 19:00:00 26.3 19 Este 35 Este 0 -- -- 41
2017-08-13 18:00:00 27.4 18 Este 35 Este 0 -- -- 40
2017-08-13 17:00:00 29.5 16 Este 32 Este 0 -- -- 34
2017-08-13 16:00:00 30 9 Sudeste 23 Sudeste 0 -- -- 26
2017-08-13 15:00:00 28.9 6 Sudoeste 18 Sudoeste 0 -- -- 27
2017-08-13 14:00:00 27.1 8 Sudeste 17 Sudeste 0 -- -- 29
2017-08-13 13:00:00 24.9 7 Sudeste 17 Sudeste 0 -- -- 33
2017-08-13 12:00:00 22.4 9 Sudeste 18 Sudeste 0 -- -- 39
2017-08-13 11:00:00 20.2 12 Sudeste 19 Sudeste 0 -- -- 40
2017-08-13 10:00:00 16.2 5 Sur 9 Sudeste 0 -- -- 51
2017-08-13 09:00:00 11.5 5 Nordeste 11 Norte 0 -- -- 71
2017-08-13 08:00:00 7.7 7 Nordeste 14 Nordeste 0 -- -- 83
2017-08-13 07:00:00 7.9 7 Nordeste 13 Nordeste 0 -- -- 82
2017-08-13 06:00:00 8.6 10 Nordeste 13 Nordeste 0 -- -- 79
2017-08-13 05:00:00 8.9 7 Norte 11 Nordeste 0 -- -- 79
2017-08-13 04:00:00 8.9 7 Nordeste 14 Nordeste 0 -- -- 76
2017-08-13 03:00:00 10.2 0 Calma 3 Oeste 0 -- -- 73
2017-08-13 02:00:00 12.1 0 Calma 15 Este 0 -- -- 64
2017-08-13 01:00:00 13.8 8 Sudeste 17 Sudeste 0 -- -- 53
2017-08-13 00:00:00 14.3 5 Este 23 Este 0 -- -- 62
2017-08-12 23:00:00 15.1 17 Este 28 Este 0 -- -- 65
2017-08-12 22:00:00 16.4 12 Este 25 Este 0 -- -- 61
2017-08-12 21:00:00 18.5 15 Este 36 Este 0 -- -- 47
2017-08-12 20:00:00 21.4 13 Este 35 Este 0 -- -- 47
2017-08-12 19:00:00 23.4 21 Este 39 Sudeste 0 -- -- 40
2017-08-12 18:00:00 25.6 18 Este 37 Este 0 -- -- 30
2017-08-12 17:00:00 26.6 19 Este 33 Este 0 -- -- 27
2017-08-12 16:00:00 27 17 Este 32 Sudeste 0 -- -- 20
2017-08-12 15:00:00 26.7 5 Este 19 Sudeste 0 -- -- 21
2017-08-12 14:00:00 25.4 7 Sur 17 Sur 0 -- -- 19
2017-08-12 13:00:00 23 8 Sur 15 Sur 0 -- -- 22
2017-08-12 12:00:00 20.2 6 Sur 12 Sur 0 -- -- 25
2017-08-12 11:00:00 16.5 4 Sur 9 Sur 0 -- -- 40
2017-08-12 10:00:00 12.7 3 Sudeste 8 Nordeste 0 -- -- 66
2017-08-12 09:00:00 8.3 6 Nordeste 11 Nordeste 0 -- -- 90
2017-08-12 08:00:00 4.7 5 Norte 14 Norte 0 -- -- 96
2017-08-12 07:00:00 4.5 3 Norte 12 Nordeste 0 -- -- 95
2017-08-12 06:00:00 5.2 4 Nordeste 12 Nordeste 0 -- -- 94
2017-08-12 05:00:00 6.4 8 Nordeste 14 Nordeste 0 -- -- 95
2017-08-12 04:00:00 6.7 3 Norte 13 Nordeste 0 -- -- 92
2017-08-12 03:00:00 8 3 Norte 10 Nordeste 0 -- -- 92
2017-08-12 02:00:00 9 3 Nordeste 10 Este 0 -- -- 89
2017-08-12 01:00:00 10.6 2 Oeste 18 Este 0 -- -- 84
2017-08-12 00:00:00 11.5 7 Este 19 Este 0 -- -- 81
2017-08-11 23:00:00 12.6 8 Sudeste 23 Sudeste 0 -- -- 78
2017-08-11 22:00:00 13.6 14 Sudeste 31 Este 0 -- -- 76
2017-08-11 21:00:00 15 18 Este 38 Este 0 -- -- 73
2017-08-11 20:00:00 16.8 21 Este 41 Este 0 -- -- 65
2017-08-11 19:00:00 18.4 24 Este 42 Este 0 -- -- 63
2017-08-11 18:00:00 20.8 20 Este 36 Este 0 -- -- 53
2017-08-11 17:00:00 21.5 15 Sudeste 38 Este 0 -- -- 47
2017-08-11 16:00:00 21.4 18 Sudeste 33 Nordeste 0 -- -- 48
2017-08-11 15:00:00 20.9 15 Este 36 Sudeste 0 -- -- 46
2017-08-11 14:00:00 20.2 10 Este 27 Este 0 -- -- 46
2017-08-11 13:00:00 18.4 14 Sudeste 23 Sudeste 0 -- -- 49
2017-08-11 12:00:00 16.5 9 Este 24 Este 0 -- -- 53
2017-08-11 11:00:00 15.1 12 Este 23 Sudeste 0 -- -- 57
2017-08-11 10:00:00 12.7 4 Sudeste 10 Sudeste 0 -- -- 69
2017-08-11 09:00:00 9.3 5 Nordeste 12 Nordeste 0 -- -- 79
2017-08-11 08:00:00 6 8 Nordeste 14 Nordeste 0 -- -- 91
2017-08-11 07:00:00 6.9 3 Nordeste 8 Este 0 -- -- 88
2017-08-11 06:00:00 7.9 2 Nordeste 10 Este 0 -- -- 84
2017-08-11 05:00:00 9.2 4 Este 9 Nordeste 0 -- -- 89
2017-08-11 04:00:00 9.7 3 Nordeste 15 Sudeste 0 -- -- 87
2017-08-11 03:00:00 9.9 7 Este 16 Este 0 -- -- 87
2017-08-11 02:00:00 10 9 Este 23 Este 0 -- -- 84
2017-08-11 01:00:00 10 12 Sudeste 19 Sudeste 0 -- -- 85
2017-08-11 00:00:00 10.3 8 Este 19 Este 0 -- -- 80
2017-08-10 23:00:00 10.8 10 Este 24 Este 0 -- -- 76
2017-08-10 22:00:00 11.6 12 Este 22 Sudeste 0 -- -- 71
2017-08-10 21:00:00 13 10 Este 33 Este 0 -- -- 69
2017-08-10 20:00:00 14.6 17 Este 44 Este 0 -- -- 63
2017-08-10 19:00:00 16.4 22 Este 41 Este 0 -- -- 57
2017-08-10 18:00:00 17.3 25 Este 41 Este 0 -- -- 52
2017-08-10 17:00:00 18.7 24 Este 45 Este 0 -- -- 50
2017-08-10 16:00:00 18.6 24 Este 43 Este 0 -- -- 49
2017-08-10 15:00:00 18.8 14 Este 50 Sudeste 0 -- -- 48
2017-08-10 14:00:00 18.2 14 Sudeste 29 Este 0 -- -- 45
2017-08-10 13:00:00 16.7 5 Sudoeste 30 Este 0 -- -- 49
2017-08-10 12:00:00 16.4 11 Noroeste 23 Noroeste 0 -- -- 50
2017-08-10 11:00:00 14.9 7 Noroeste 21 Oeste 0 -- -- 57
2017-08-10 10:00:00 11.9 3 Sur 11 Norte 0 -- -- 68
2017-08-10 09:00:00 6 7 Nordeste 14 Nordeste 0 -- -- 89
2017-08-10 08:00:00 4.3 5 Norte 13 Nordeste 0 -- -- 92
2017-08-10 07:00:00 3.5 2 Noroeste 15 Nordeste 0 -- -- 92
2017-08-10 06:00:00 3 5 Norte 12 Nordeste 0 -- -- 91
2017-08-10 05:00:00 3.3 3 Nordeste 15 Nordeste 0 -- -- 90
2017-08-10 04:00:00 3.9 2 Nordeste 9 Norte 0 -- -- 87
2017-08-10 03:00:00 4.5 3 Norte 12 Nordeste 0 -- -- 86
2017-08-10 02:00:00 5.8 0 Calma 6 Oeste 0 -- -- 84
2017-08-10 01:00:00 6.5 2 Norte 6 Sudeste 0 -- -- 82
2017-08-10 00:00:00 7.7 2 Sudeste 9 Este 0 -- -- 79
2017-08-09 23:00:00 9.6 0 Calma 20 Este 0 -- -- 75
2017-08-09 22:00:00 10.4 9 Este 17 Sudeste 0 -- -- 75
2017-08-09 21:00:00 12.4 12 Este 26 Nordeste 0 -- -- 57
2017-08-09 20:00:00 14 11 Este 28 Este 0 -- -- 59
2017-08-09 19:00:00 15.3 14 Nordeste 36 Este 0 -- -- 48
2017-08-09 18:00:00 15.5 16 Este 35 Este 0 -- -- 53
2017-08-09 17:00:00 18 14 Nordeste 31 Este 0 -- -- 38
2017-08-09 16:00:00 17.4 16 Nordeste 37 Nordeste 0 -- -- 44
2017-08-09 15:00:00 18.9 12 Nordeste 47 Este 0 -- -- 38
2017-08-09 14:00:00 16.9 18 Este 42 Este 0 -- -- 51
2017-08-09 13:00:00 15.7 6 Sudoeste 16 Nordeste 0 -- -- 48
2017-08-09 12:00:00 14.6 9 Nordeste 39 Este 0 -- -- 56
2017-08-09 11:00:00 14.3 7 Sur 18 Sudeste 0 -- -- 61
2017-08-09 10:00:00 12.9 6 Sudeste 16 Sudeste 0 -- -- 70
2017-08-09 09:00:00 11 3 Nordeste 12 Sudeste 0 -- -- 80
2017-08-09 08:00:00 7.6 2 Este 11 Nordeste 0 -- -- 92
2017-08-09 07:00:00 7.4 3 Nordeste 9 Norte 0 -- -- 93
2017-08-09 06:00:00 6.8 6 Nordeste 10 Nordeste 0 -- -- 91
2017-08-09 05:00:00 6.7 2 Nordeste 6 Nordeste 0 -- -- 91
2017-08-09 04:00:00 7.6 2 Nordeste 12 Este 0 -- -- 87
2017-08-09 03:00:00 9.2 7 Sudeste 15 Este 0 -- -- 84
2017-08-09 02:00:00 9.6 3 Este 20 Este 0 -- -- 80
2017-08-09 01:00:00 9.7 5 Este 21 Este 0 -- -- 81
2017-08-09 00:00:00 10.3 7 Este 20 Este 0 -- -- 86
2017-08-08 23:00:00 10.9 9 Este 30 Este 0 -- -- 85
2017-08-08 22:00:00 11.4 17 Este 30 Este 0 -- -- 85
2017-08-08 21:00:00 12.8 16 Este 32 Este 0 -- -- 77
2017-08-08 20:00:00 14.4 19 Este 33 Sudeste 0 -- -- 73
2017-08-08 19:00:00 16.4 13 Este 39 Este 0 -- -- 65
2017-08-08 18:00:00 17.6 18 Este 43 Este 0 -- -- 61
2017-08-08 17:00:00 18.7 21 Este 41 Este 0 -- -- 55
2017-08-08 16:00:00 18.9 22 Este 40 Este 0 -- -- 51
2017-08-08 15:00:00 18.9 22 Este 43 Este 0 -- -- 51
2017-08-08 14:00:00 18.8 18 Este 37 Este 0 -- -- 53
2017-08-08 13:00:00 18.1 12 Este 27 Este 0 -- -- 53
2017-08-08 12:00:00 16.9 6 Sur 15 Sur 0 -- -- 55
2017-08-08 11:00:00 15.4 5 Sur 13 Sudeste 0 -- -- 57
2017-08-08 10:00:00 13.7 4 Oeste 10 Sudoeste 0 -- -- 67
2017-08-08 09:00:00 12.1 2 Este 5 Nordeste 0 -- -- 75
2017-08-08 08:00:00 9.6 0 Calma 7 Sudeste 0 -- -- 88
2017-08-08 07:00:00 9.4 3 Sudoeste 15 Este 0 -- -- 90
2017-08-08 06:00:00 10.3 7 Este 17 Este 0 -- -- 87
2017-08-08 05:00:00 11 11 Este 21 Este 0 -- -- 86
2017-08-08 04:00:00 11.4 7 Este 19 Este 0 -- -- 85
2017-08-08 03:00:00 12.2 11 Este 20 Este 0 -- -- 81
2017-08-08 02:00:00 12.2 8 Este 21 Este 0 -- -- 84
2017-08-08 01:00:00 12.5 12 Este 23 Este 0 -- -- 85
2017-08-08 00:00:00 12.6 9 Este 29 Este 0 -- -- 84
2017-08-07 23:00:00 13.1 14 Este 27 Sudeste 0 -- -- 81
2017-08-07 22:00:00 14.7 12 Este 27 Este 0 -- -- 79
2017-08-07 21:00:00 15.7 12 Este 30 Este 0 -- -- 77
2017-08-07 20:00:00 16.7 14 Este 33 Sudeste 0 -- -- 75
2017-08-07 19:00:00 17.3 16 Este 39 Este 0 -- -- 76
2017-08-07 18:00:00 18.6 19 Este 41 Sudeste 0 -- -- 71
2017-08-07 17:00:00 20.6 24 Este 45 Este 0 -- -- 66
2017-08-07 16:00:00 25.9 14 Este 30 Este 0 -- -- 50
2017-08-07 15:00:00 28.3 9 Sur 27 Sudoeste 0 -- -- 39
2017-08-07 14:00:00 26.7 13 Sur 22 Sur 0 -- -- 41
2017-08-07 13:00:00 23.8 4 Nordeste 12 Sudeste 0 -- -- 54
2017-08-07 12:00:00 20.7 6 Sur 13 Sur 0 -- -- 62
2017-08-07 11:00:00 17.3 5 Sur 10 Sur 0 -- -- 74
2017-08-07 10:00:00 14.7 4 Sudeste 8 Nordeste 0 -- -- 83
2017-08-07 09:00:00 12 6 Nordeste 12 Nordeste 0 -- -- 89
2017-08-07 08:00:00 11.1 8 Nordeste 13 Nordeste 0 -- -- 90
2017-08-07 07:00:00 11.5 8 Nordeste 19 Este 0 -- -- 88
2017-08-07 06:00:00 13 7 Este 16 Sudeste 0 -- -- 90
2017-08-07 05:00:00 13 8 Este 21 Sudeste 0 -- -- 89
2017-08-07 04:00:00 13 9 Este 20 Este 0 -- -- 88
2017-08-07 03:00:00 12.9 10 Este 22 Este 0 -- -- 90
2017-08-07 02:00:00 13.1 12 Este 25 Este 0 -- -- 89
2017-08-07 01:00:00 13 13 Este 30 Este 0 -- -- 89
2017-08-07 00:00:00 13.2 18 Este 33 Sudeste 0 -- -- 87
2017-08-06 23:00:00 13.5 16 Este 34 Este 0 -- -- 86
2017-08-06 22:00:00 13.5 18 Este 39 Este 0 -- -- 86
2017-08-06 21:00:00 14.5 16 Este 36 Este 0 -- -- 80
2017-08-06 20:00:00 16.8 18 Este 37 Este 0 -- -- 69
2017-08-06 19:00:00 18.5 22 Este 42 Este 0 -- -- 61
2017-08-06 18:00:00 19.4 24 Este 43 Este 0 -- -- 57
2017-08-06 17:00:00 19.5 23 Este 45 Este 0 -- -- 58
2017-08-06 16:00:00 19.7 21 Este 44 Sudeste 0 -- -- 56
2017-08-06 15:00:00 18.9 21 Este 48 Este 0 -- -- 57
2017-08-06 14:00:00 17.6 23 Este 45 Sudeste 0 -- -- 61
2017-08-06 13:00:00 16.2 26 Este 42 Este 0 -- -- 66
2017-08-06 12:00:00 15.1 19 Este 47 Este 0 -- -- 72
2017-08-06 11:00:00 13.8 22 Este 50 Sudeste 0 -- -- 77
2017-08-06 10:00:00 13.3 19 Este 37 Sudeste 0 -- -- 81
2017-08-06 09:00:00 12.3 18 Este 33 Este 0 -- -- 86
2017-08-06 08:00:00 11.8 13 Este 31 Este 0 -- -- 89
2017-08-06 07:00:00 12.1 16 Este 37 Este 0 -- -- 89
2017-08-06 06:00:00 12.2 13 Este 27 Este 0 -- -- 90
2017-08-06 05:00:00 12.6 8 Este 22 Este 0 -- -- 90
2017-08-06 04:00:00 12.7 9 Este 24 Nordeste 0 -- -- 89
2017-08-06 03:00:00 13 7 Este 22 Sudeste 0 -- -- 87
2017-08-06 02:00:00 13.3 8 Este 24 Nordeste 0 -- -- 85
2017-08-06 01:00:00 13.2 8 Este 24 Este 0 -- -- 85
2017-08-06 00:00:00 13.1 9 Este 21 Este 0 -- -- 86
2017-08-05 23:00:00 13.2 10 Este 29 Este 0 -- -- 86
2017-08-05 22:00:00 13.2 15 Este 35 Este 0 -- -- 86
2017-08-05 21:00:00 14.3 11 Este 38 Sudeste 0 -- -- 80
2017-08-05 20:00:00 16.2 21 Este 38 Este 0 -- -- 75
2017-08-05 19:00:00 17.4 19 Este 39 Sudeste 0 -- -- 71
2017-08-05 18:00:00 18.8 18 Este 45 Este 0 -- -- 67
2017-08-05 17:00:00 19.7 23 Este 47 Este 0 -- -- 64
2017-08-05 16:00:00 20.6 22 Este 42 Este 0 -- -- 61
2017-08-05 15:00:00 21.1 21 Este 49 Este 0 -- -- 62
2017-08-05 14:00:00 21.3 19 Este 45 Este 0 -- -- 61
2017-08-05 13:00:00 20.9 22 Este 45 Este 0 -- -- 63
2017-08-05 12:00:00 20.7 19 Este 42 Sudeste 0 -- -- 65
2017-08-05 11:00:00 20.2 19 Este 40 Este 0 -- -- 67
2017-08-05 10:00:00 19.3 16 Este 33 Sudeste 0 -- -- 73
2017-08-05 09:00:00 19.1 10 Este 26 Este 0 -- -- 76
2017-08-05 08:00:00 17.3 15 Este 30 Sudeste 0 -- -- 89
2017-08-05 07:00:00 17.9 12 Este 23 Este 0 -- -- 92
2017-08-05 06:00:00 18.2 10 Este 19 Este 0 -- -- 91
2017-08-05 05:00:00 18.1 9 Este 19 Este 0 -- -- 90
2017-08-05 04:00:00 17.9 6 Este 13 Este 0 -- -- 91
2017-08-05 03:00:00 17.8 4 Este 15 Este 0 -- -- 91
2017-08-05 02:00:00 18.3 9 Este 24 Este 0 -- -- 91
2017-08-05 01:00:00 18.7 14 Este 26 Este 0 -- -- 90
2017-08-05 00:00:00 18.5 14 Este 27 Este 0 -- -- 90
2017-08-04 23:00:00 18.8 13 Este 29 Este 0 -- -- 88
2017-08-04 22:00:00 19.5 15 Este 32 Este 0 -- -- 84
2017-08-04 21:00:00 20.8 19 Este 36 Sudeste 0 -- -- 79
2017-08-04 20:00:00 23.1 18 Este 39 Este 0 -- -- 72
2017-08-04 19:00:00 25.4 21 Este 40 Este 0 -- -- 64
2017-08-04 18:00:00 29.3 21 Este 37 Sudeste 0 -- -- 51
2017-08-04 17:00:00 33.5 6 Este 26 Oeste 0 -- -- 39
2017-08-04 16:00:00 33 14 Oeste 28 Oeste 0 -- -- 36
2017-08-04 15:00:00 31.5 9 Sudoeste 24 Sudoeste 0 -- -- 39
2017-08-04 14:00:00 29.5 8 Noroeste 16 Oeste 0 -- -- 44
2017-08-04 13:00:00 27 6 Sudeste 13 Sur 0 -- -- 48
2017-08-04 12:00:00 24.6 5 Sudeste 12 Sur 0 -- -- 52
2017-08-04 11:00:00 22.6 5 Sur 12 Sur 0 -- -- 55
2017-08-04 10:00:00 19.5 3 Sur 6 Oeste 0 -- -- 73
2017-08-04 09:00:00 15.8 4 Nordeste 6 Nordeste 0 -- -- 89
2017-08-04 08:00:00 11.6 2 Nordeste 10 Nordeste 0 -- -- 95
2017-08-04 07:00:00 11.8 2 Noroeste 8 Nordeste 0 -- -- 94
2017-08-04 06:00:00 12.6 6 Nordeste 8 Nordeste 0 -- -- 95
2017-08-04 05:00:00 13 0 Calma 7 Este 0 -- -- 93
2017-08-04 04:00:00 13.7 2 Este 10 Nordeste 0 -- -- 92
2017-08-04 03:00:00 14.4 6 Nordeste 9 Nordeste 0 -- -- 93
2017-08-04 02:00:00 15.6 2 Norte 8 Nordeste 0 -- -- 90
2017-08-04 01:00:00 16.4 5 Este 12 Sudeste 0 -- -- 89
2017-08-04 00:00:00 16.9 7 Este 15 Este 0 -- -- 87
2017-08-03 23:00:00 17.2 7 Este 29 Este 0 -- -- 87
2017-08-03 22:00:00 17.7 12 Este 37 Este 0 -- -- 87
2017-08-03 21:00:00 19.1 19 Este 44 Este 0 -- -- 82
2017-08-03 20:00:00 22.4 24 Este 40 Este 0 -- -- 67
2017-08-03 19:00:00 27.5 19 Este 34 Este 0 -- -- 49
2017-08-03 18:00:00 31.5 11 Sudoeste 29 Sudoeste 0 -- -- 32
2017-08-03 17:00:00 31.6 15 Sudoeste 27 Oeste 0 -- -- 33
2017-08-03 16:00:00 30.9 16 Sudoeste 32 Sudoeste 0 -- -- 32
2017-08-03 15:00:00 30.7 12 Oeste 36 Sur 0 -- -- 29
2017-08-03 14:00:00 29 9 Sudoeste 31 Oeste 0 -- -- 32
2017-08-03 13:00:00 27.3 12 Oeste 23 Oeste 0 -- -- 33
2017-08-03 12:00:00 24.3 6 Este 15 Sur 0 -- -- 40
2017-08-03 11:00:00 21.8 7 Sur 13 Sur 0 -- -- 50
2017-08-03 10:00:00 18.1 7 Oeste 11 Oeste 0 -- -- 60
2017-08-03 09:00:00 14.1 0 Calma 8 Norte 0 -- -- 72
2017-08-03 08:00:00 9.6 5 Nordeste 13 Nordeste 0 -- -- 82
2017-08-03 07:00:00 9.8 7 Nordeste 14 Nordeste 0 -- -- 82
2017-08-03 06:00:00 10.2 7 Nordeste 13 Nordeste 0 -- -- 81
2017-08-03 05:00:00 10.9 6 Nordeste 13 Nordeste 0 -- -- 81
2017-08-03 04:00:00 11.6 8 Nordeste 13 Nordeste 0 -- -- 82
2017-08-03 03:00:00 13 5 Norte 10 Nordeste 0 -- -- 85
2017-08-03 02:00:00 14.4 4 Nordeste 8 Nordeste 0 -- -- 83
2017-08-03 01:00:00 16.7 0 Calma 14 Este 0 -- -- 80
2017-08-03 00:00:00 18.3 7 Este 16 Sudeste 0 -- -- 79
2017-08-02 23:00:00 20 3 Sur 11 Este 0 -- -- 70
2017-08-02 22:00:00 22.8 4 Sudeste 12 Este 0 -- -- 52
2017-08-02 21:00:00 27.5 5 Oeste 21 Sudoeste 0 -- -- 28
2017-08-02 20:00:00 29.4 10 Oeste 27 Oeste 0 -- -- 24
2017-08-02 19:00:00 30.6 12 Sudoeste 28 Oeste 0 -- -- 24
2017-08-02 18:00:00 30.9 6 Oeste 28 Oeste 0 -- -- 25
2017-08-02 17:00:00 31.1 12 Oeste 33 Oeste 0 -- -- 24
2017-08-02 16:00:00 30.9 14 Oeste 30 Noroeste 0 -- -- 25
2017-08-02 15:00:00 29.8 16 Sudoeste 34 Sudoeste 0 -- -- 29
2017-08-02 14:00:00 29.4 13 Oeste 32 Oeste 0 -- -- 28
2017-08-02 13:00:00 27.8 14 Oeste 29 Oeste 0 -- -- 32
2017-08-02 12:00:00 25.3 9 Oeste 24 Oeste 0 -- -- 36
2017-08-02 11:00:00 20.9 5 Sur 12 Sudeste 0 -- -- 65
2017-08-02 10:00:00 16.9 4 Sur 10 Oeste 0 -- -- 79
2017-08-02 09:00:00 13.2 3 Oeste 6 Nordeste 0 -- -- 98
2017-08-02 08:00:00 11 6 Nordeste 13 Nordeste 0 -- -- 98
2017-08-02 07:00:00 10.9 9 Nordeste 12 Nordeste 0 -- -- 93
2017-08-02 06:00:00 11.1 5 Nordeste 12 Nordeste 0 -- -- 96
2017-08-02 05:00:00 10.7 5 Nordeste 9 Norte 0 -- -- 94
2017-08-02 04:00:00 11.3 8 Nordeste 13 Nordeste 0 -- -- 95
2017-08-02 03:00:00 13 5 Norte 9 Nordeste 0 -- -- 93
2017-08-02 02:00:00 14.4 6 Este 11 Este 0 -- -- 93
2017-08-02 01:00:00 14.9 7 Este 14 Nordeste 0 -- -- 91
2017-08-02 00:00:00 15.2 8 Este 20 Este 0 -- -- 90
2017-08-01 23:00:00 15.7 8 Este 20 Este 0 -- -- 88
2017-08-01 22:00:00 16.7 10 Este 29 Este 0 -- -- 83
2017-08-01 21:00:00 18.3 15 Este 34 Este 0 -- -- 76
2017-08-01 20:00:00 19.5 15 Este 37 Este 0 -- -- 72
2017-08-01 19:00:00 21.3 19 Este 35 Sudeste 0 -- -- 64
2017-08-01 18:00:00 23.5 18 Este 38 Sudeste 0 -- -- 57
2017-08-01 17:00:00 24.6 17 Este 33 Este 0 -- -- 52
2017-08-01 16:00:00 24.6 12 Sudeste 33 Sudeste 0 -- -- 49
2017-08-01 15:00:00 24 12 Este 30 Sudeste 0 -- -- 50
2017-08-01 14:00:00 23.1 12 Este 30 Este 0 -- -- 52
2017-08-01 13:00:00 22 9 Este 25 Este 0 -- -- 55
2017-08-01 12:00:00 19.7 12 Este 24 Sudeste 0 -- -- 64
2017-08-01 11:00:00 18.4 12 Sudeste 24 Este 0 -- -- 70
2017-08-01 10:00:00 16.4 15 Este 25 Este 0 -- -- 81
2017-08-01 09:00:00 14.5 10 Este 16 Este 0 -- -- 91
2017-08-01 08:00:00 13.2 5 Este 15 Este 0 -- -- 94
2017-08-01 07:00:00 12.6 4 Este 12 Sudeste 0 -- -- 93
2017-08-01 06:00:00 13.6 5 Este 9 Sudeste 0 -- -- 91
2017-08-01 05:00:00 14.1 4 Noroeste 18 Sudeste 0 -- -- 89
2017-08-01 04:00:00 14.4 7 Este 21 Este 0 -- -- 88
2017-08-01 03:00:00 14.3 9 Este 19 Este 0 -- -- 91
2017-08-01 02:00:00 14 5 Este 19 Este 0 -- -- 90
2017-08-01 01:00:00 14.2 9 Este 24 Sudeste 0 -- -- 89
2017-08-01 00:00:00 14.1 12 Este 25 Este 0 -- -- 90
2017-07-31 23:00:00 14.5 12 Este 23 Este 0 -- -- 87
2017-07-31 22:00:00 15.1 10 Este 28 Este 0 -- -- 83
2017-07-31 21:00:00 16.2 16 Este 28 Sudeste 0 -- -- 79
2017-07-31 20:00:00 16.9 16 Este 31 Este 0 -- -- 78
2017-07-31 19:00:00 18 20 Este 42 Este 0 -- -- 74
2017-07-31 18:00:00 19.6 24 Este 38 Este 0 -- -- 69
2017-07-31 17:00:00 24.1 20 Este 32 Este 0 -- -- 52
2017-07-31 16:00:00 23.9 12 Nordeste 25 Este 0 -- -- 52
2017-07-31 15:00:00 23 14 Este 27 Sudeste 0 -- -- 53
2017-07-31 14:00:00 21.9 14 Este 30 Este 0 -- -- 57
2017-07-31 13:00:00 19.8 11 Sudeste 29 Este 0 -- -- 62
2017-07-31 12:00:00 18.2 12 Este 28 Este 0 -- -- 67
2017-07-31 11:00:00 16.4 11 Este 27 Este 0 -- -- 73
2017-07-31 10:00:00 15.1 9 Este 25 Este 0 -- -- 76
2017-07-31 09:00:00 14.4 8 Este 23 Nordeste 0 -- -- 78
2017-07-31 08:00:00 12.5 6 Este 22 Este 0 -- -- 83
2017-07-31 07:00:00 11.5 7 Este 18 Este 0 -- -- 86
2017-07-31 06:00:00 11 6 Este 13 Nordeste 0 -- -- 88
2017-07-31 05:00:00 11.5 6 Este 13 Este 0 -- -- 87
2017-07-31 04:00:00 12 6 Este 14 Este 0 -- -- 87
2017-07-31 03:00:00 12.5 6 Este 19 Este 0 -- -- 87
2017-07-31 02:00:00 12.7 10 Este 23 Este 0 -- -- 89
2017-07-31 01:00:00 12.1 8 Este 22 Sudeste 0 -- -- 91
2017-07-31 00:00:00 12.4 10 Este 24 Este 0 -- -- 90
2017-07-30 23:00:00 12.7 9 Este 24 Este 0 -- -- 89
2017-07-30 22:00:00 13.3 12 Este 32 Este 0 -- -- 89
2017-07-30 21:00:00 14.9 18 Este 46 Sudeste 0 -- -- 83
2017-07-30 20:00:00 16.9 23 Este 43 Este 0 -- -- 76
2017-07-30 19:00:00 18.2 22 Este 44 Este 0 -- -- 74
2017-07-30 18:00:00 21.4 22 Este 52 Este 0 -- -- 62
2017-07-30 17:00:00 29.1 12 Noroeste 32 Sur 0 -- -- 41
2017-07-30 16:00:00 29.4 13 Oeste 39 Oeste 0 -- -- 24
2017-07-30 15:00:00 28.5 18 Sudoeste 33 Sudoeste 0 -- -- 25
2017-07-30 14:00:00 27 17 Oeste 44 Sudoeste 0 -- -- 30
2017-07-30 13:00:00 25.2 12 Sudoeste 27 Sur 0 -- -- 35
2017-07-30 12:00:00 23 10 Sudoeste 24 Sudoeste 0 -- -- 47
2017-07-30 11:00:00 20.5 4 Sudoeste 11 Sudoeste 0 -- -- 64
2017-07-30 10:00:00 18.5 6 Sudeste 12 Este 0 -- -- 76
2017-07-30 09:00:00 15.1 0 Calma 11 Nordeste 0 -- -- 87
2017-07-30 08:00:00 12.8 0 Calma 10 Nordeste 0 -- -- 91
2017-07-30 07:00:00 13.8 0 Calma 13 Este 0 -- -- 87
2017-07-30 06:00:00 15 6 Este 15 Este 0 -- -- 87
2017-07-30 05:00:00 15.6 6 Sudeste 15 Sudeste 0 -- -- 86
2017-07-30 04:00:00 15.9 5 Este 22 Este 0 -- -- 85
2017-07-30 03:00:00 16.6 9 Este 22 Este 0 -- -- 86
2017-07-30 02:00:00 18.3 6 Este 16 Este 0 -- -- 81
2017-07-30 01:00:00 19.4 8 Este 16 Este 0 -- -- 76
2017-07-30 00:00:00 21.1 3 Nordeste 13 Nordeste 0 -- -- 63
2017-07-29 23:00:00 24.4 7 Oeste 23 Oeste 0 -- -- 41
2017-07-29 22:00:00 27.3 6 Oeste 21 Noroeste 0 -- -- 38
2017-07-29 21:00:00 28.9 8 Oeste 26 Oeste 0 -- -- 32
2017-07-29 20:00:00 30.1 14 Oeste 36 Oeste 0 -- -- 31
2017-07-29 19:00:00 31.1 17 Oeste 40 Oeste 0 -- -- 27
2017-07-29 18:00:00 31.9 16 Oeste 42 Sur 0 -- -- 26
2017-07-29 17:00:00 31.7 17 Oeste 35 Oeste 0 -- -- 25
2017-07-29 16:00:00 31.1 14 Oeste 31 Oeste 0 -- -- 29
2017-07-29 15:00:00 30.3 15 Sudoeste 34 Oeste 0 -- -- 32
2017-07-29 14:00:00 28.5 18 Oeste 36 Oeste 0 -- -- 35
2017-07-29 13:00:00 27.3 9 Oeste 29 Sudoeste 0 -- -- 36
2017-07-29 12:00:00 25 10 Sudoeste 24 Sur 0 -- -- 41
2017-07-29 11:00:00 22.5 5 Este 12 Sudeste 0 -- -- 44
2017-07-29 10:00:00 19.3 3 Sur 8 Oeste 0 -- -- 61
2017-07-29 09:00:00 15.9 0 Calma 6 Nordeste 0 -- -- 76
2017-07-29 08:00:00 11.7 7 Nordeste 10 Nordeste 0 -- -- 87
2017-07-29 07:00:00 12.1 2 Norte 10 Nordeste 0 -- -- 83
2017-07-29 06:00:00 13 3 Norte 9 Norte 0 -- -- 81
2017-07-29 05:00:00 13.6 5 Norte 10 Nordeste 0 -- -- 76
2017-07-29 04:00:00 14.3 0 Calma 3 Norte 0 -- -- 66
2017-07-29 03:00:00 15.1 4 Nordeste 19 Sudeste 0 -- -- 60
2017-07-29 02:00:00 16.2 5 Sudeste 15 Sudeste 0 -- -- 57
2017-07-29 01:00:00 16.8 10 Sudeste 23 Sudeste 0 -- -- 52
2017-07-29 00:00:00 17.2 9 Sudeste 25 Sudeste 0 -- -- 54
2017-07-28 23:00:00 18.2 12 Este 37 Este 0 -- -- 65
2017-07-28 22:00:00 19.2 18 Este 32 Este 0 -- -- 66
2017-07-28 21:00:00 21.2 16 Este 36 Este 0 -- -- 63
2017-07-28 20:00:00 23.9 19 Este 43 Este 0 -- -- 60
2017-07-28 19:00:00 26.1 22 Este 44 Este 0 -- -- 54
2017-07-28 18:00:00 29 21 Este 36 Este 0 -- -- 42
2017-07-28 17:00:00 30.9 10 Sudeste 30 Sur 0 -- -- 28
2017-07-28 16:00:00 30.4 12 Sur 29 Sur 0 -- -- 30
2017-07-28 15:00:00 29.4 6 Sur 19 Oeste 0 -- -- 32
2017-07-28 14:00:00 27.1 4 Sudeste 23 Nordeste 0 -- -- 40
2017-07-28 13:00:00 24.7 6 Sudoeste 21 Sur 0 -- -- 51
2017-07-28 12:00:00 22.6 5 Noroeste 15 Noroeste 0 -- -- 59
2017-07-28 11:00:00 20.9 6 Noroeste 15 Oeste 0 -- -- 68
2017-07-28 10:00:00 19 3 Norte 7 Noroeste 0 -- -- 78
2017-07-28 09:00:00 17.6 2 Sudeste 4 Sudoeste 0 -- -- 86
2017-07-28 08:00:00 16.9 3 Nordeste 7 Nordeste 0 -- -- 89
2017-07-28 07:00:00 16.7 3 Nordeste 8 Este 0 -- -- 88
2017-07-28 06:00:00 16.7 5 Este 10 Este 0 -- -- 88
2017-07-28 05:00:00 16.6 6 Este 12 Este 0 -- -- 89
2017-07-28 04:00:00 16.5 4 Este 12 Este 0 -- -- 90
2017-07-28 03:00:00 16.7 5 Este 14 Este 0 -- -- 89
2017-07-28 02:00:00 16.9 6 Este 19 Este 0 -- -- 90
2017-07-28 01:00:00 17 13 Este 29 Este 0 -- -- 91
2017-07-28 00:00:00 17 15 Este 31 Este 0 -- -- 90
2017-07-27 23:00:00 17 17 Este 32 Sudeste 0 -- -- 92
2017-07-27 22:00:00 17.7 15 Este 37 Este 0 -- -- 88
2017-07-27 21:00:00 20.1 14 Este 34 Este 0 -- -- 77
2017-07-27 20:00:00 22.3 17 Este 37 Este 0 -- -- 68
2017-07-27 19:00:00 24.5 20 Este 41 Este 0 -- -- 62
2017-07-27 18:00:00 26.5 20 Este 42 Este 0 -- -- 54
2017-07-27 17:00:00 27.9 25 Este 41 Este 0 -- -- 47
2017-07-27 16:00:00 30.7 15 Sudeste 46 Sur 0 -- -- 38
2017-07-27 15:00:00 30.5 10 Sur 20 Oeste 0 -- -- 28
2017-07-27 14:00:00 28.9 9 Noroeste 19 Norte 0 -- -- 31
2017-07-27 13:00:00 26.1 6 Noroeste 14 Sur 0 -- -- 38
2017-07-27 12:00:00 23.7 6 Sur 11 Sur 0 -- -- 45
2017-07-27 11:00:00 21.6 5 Sur 12 Sur 0 -- -- 54
2017-07-27 10:00:00 18.3 5 Oeste 9 Oeste 0 -- -- 69
2017-07-27 09:00:00 14.6 3 Nordeste 10 Nordeste 0 -- -- 84
2017-07-27 08:00:00 10 9 Nordeste 14 Nordeste 0 -- -- 95
2017-07-27 07:00:00 9.6 3 Nordeste 10 Nordeste 0 -- -- 92
2017-07-27 06:00:00 10.4 0 Calma 9 Nordeste 0 -- -- 91
2017-07-27 05:00:00 11.3 7 Nordeste 14 Nordeste 0 -- -- 91
2017-07-27 04:00:00 12 8 Nordeste 12 Nordeste 0 -- -- 90
2017-07-27 03:00:00 12.8 4 Norte 11 Nordeste 0 -- -- 88
2017-07-27 02:00:00 14.2 0 Calma 10 Nordeste 0 -- -- 80
2017-07-27 01:00:00 15.8 2 Oeste 13 Este 0 -- -- 76
2017-07-27 00:00:00 16.5 3 Nordeste 8 Este 0 -- -- 74
2017-07-26 23:00:00 18.7 8 Este 22 Este 0 -- -- 68
2017-07-26 22:00:00 20 14 Este 23 Este 0 -- -- 67
2017-07-26 21:00:00 22.4 13 Este 27 Este 0 -- -- 62
2017-07-26 20:00:00 24.4 16 Este 28 Este 0 -- -- 54
2017-07-26 19:00:00 25.8 18 Este 31 Este 0 -- -- 50
2017-07-26 18:00:00 27 17 Este 33 Este 0 -- -- 46
2017-07-26 17:00:00 26.9 18 Este 32 Este 0 -- -- 47
2017-07-26 16:00:00 27.7 10 Nordeste 20 Sudeste 0 -- -- 37
2017-07-26 15:00:00 27.4 7 Sur 19 Sudoeste 0 -- -- 38
2017-07-26 14:00:00 25.4 9 Sur 23 Sudoeste 0 -- -- 41
2017-07-26 13:00:00 23.6 7 Sudeste 17 Sudeste 0 -- -- 47
2017-07-26 12:00:00 21.5 9 Sudoeste 15 Sur 0 -- -- 51
2017-07-26 11:00:00 19.1 7 Oeste 13 Sudoeste 0 -- -- 60
2017-07-26 10:00:00 15.8 3 Noroeste 9 Oeste 0 -- -- 73
2017-07-26 09:00:00 12.3 5 Noroeste 10 Noroeste 0 -- -- 89
2017-07-26 08:00:00 8.1 5 Nordeste 8 Nordeste 0 -- -- 96
2017-07-26 07:00:00 7.6 7 Nordeste 14 Nordeste 0 -- -- 95
2017-07-26 06:00:00 7.7 3 Nordeste 9 Nordeste 0 -- -- 94
2017-07-26 05:00:00 8.2 5 Nordeste 9 Norte 0 -- -- 94
2017-07-26 04:00:00 8.6 5 Nordeste 13 Nordeste 0 -- -- 93
2017-07-26 03:00:00 9.8 6 Nordeste 10 Nordeste 0 -- -- 91
2017-07-26 02:00:00 10.6 2 Sur 8 Nordeste 0 -- -- 90
2017-07-26 01:00:00 11.5 0 Calma 14 Sudeste 0 -- -- 87
2017-07-26 00:00:00 12.3 6 Sudeste 17 Sudeste 0 -- -- 84
2017-07-25 23:00:00 13.1 10 Sudeste 22 Sudeste 0 -- -- 80
2017-07-25 22:00:00 14.1 13 Sudeste 26 Este 0 -- -- 76
2017-07-25 21:00:00 15.5 12 Sudeste 37 Este 0 -- -- 69
2017-07-25 20:00:00 16.7 21 Este 40 Este 0 -- -- 67
2017-07-25 19:00:00 18.1 22 Este 50 Este 0 -- -- 62
2017-07-25 18:00:00 18.8 24 Este 46 Este 0 -- -- 59
2017-07-25 17:00:00 19.8 19 Este 45 Este 0 -- -- 57
2017-07-25 16:00:00 20.2 23 Este 42 Este 0 -- -- 54
2017-07-25 15:00:00 19.2 23 Este 39 Este 0 -- -- 58
2017-07-25 14:00:00 18.4 22 Sudeste 40 Sudeste 0 -- -- 60
2017-07-25 13:00:00 17.9 15 Sudeste 33 Este 0 -- -- 63
2017-07-25 12:00:00 17.1 16 Este 29 Sudeste 0 -- -- 66
2017-07-25 11:00:00 16.3 14 Este 28 Este 0 -- -- 68
2017-07-25 10:00:00 14.9 9 Este 21 Sudeste 0 -- -- 72
2017-07-25 09:00:00 12.9 4 Sudeste 10 Este 0 -- -- 82
2017-07-25 08:00:00 6.8 0 Calma 10 Nordeste 0 -- -- 94
2017-07-25 07:00:00 6.9 3 Nordeste 14 Nordeste 0 -- -- 94
2017-07-25 06:00:00 7.2 10 Nordeste 14 Este 0 -- -- 95
2017-07-25 05:00:00 8.3 4 Este 11 Este 0 -- -- 90
2017-07-25 04:00:00 8.9 0 Calma 12 Este 0 -- -- 87
2017-07-25 03:00:00 10.3 2 Norte 13 Este 0 -- -- 84
2017-07-25 02:00:00 12 6 Este 19 Este 0 -- -- 83
2017-07-25 01:00:00 12.4 10 Este 25 Este 0 -- -- 86
2017-07-25 00:00:00 12.7 13 Este 28 Este 0 -- -- 86
2017-07-24 23:00:00 13 14 Este 32 Este 0 -- -- 88
2017-07-24 22:00:00 13.5 17 Este 40 Este 0 -- -- 85
2017-07-24 21:00:00 15.3 21 Este 50 Este 0 -- -- 77
2017-07-24 20:00:00 17.7 20 Este 40 Este 0 -- -- 67
2017-07-24 19:00:00 19 23 Este 43 Este 0 -- -- 65
2017-07-24 18:00:00 19.7 23 Este 43 Este 0 -- -- 64
2017-07-24 17:00:00 21.1 21 Este 40 Este 0 -- -- 60
2017-07-24 16:00:00 20.7 22 Este 41 Este 0 -- -- 61
2017-07-24 15:00:00 22 17 Este 32 Este 0 -- -- 56
2017-07-24 14:00:00 21.4 19 Sudeste 34 Este 0 -- -- 56
2017-07-24 13:00:00 21.8 19 Este 30 Sudeste 0 -- -- 57
2017-07-24 12:00:00 20.2 9 Sur 17 Sudeste 0 -- -- 60
2017-07-24 11:00:00 18.2 5 Sur 13 Sudeste 0 -- -- 71
2017-07-24 10:00:00 15.1 5 Sudeste 8 Este 0 -- -- 89
2017-07-24 09:00:00 13 3 Nordeste 7 Noroeste 0 -- -- 97
2017-07-24 08:00:00 12.2 0 Calma 5 Sur 0 -- -- 99
2017-07-24 07:00:00 11.8 0 Calma 8 Nordeste 0 -- -- 99
2017-07-24 06:00:00 10.8 4 Norte 12 Nordeste 0 -- -- 98
2017-07-24 05:00:00 10.3 5 Norte 12 Nordeste 0 -- -- 95
2017-07-24 04:00:00 11 8 Nordeste 13 Nordeste 0 -- -- 94
2017-07-24 03:00:00 12.2 5 Nordeste 9 Nordeste 0 -- -- 91
2017-07-24 02:00:00 14.5 3 Este 17 Este 0 -- -- 89
2017-07-24 01:00:00 15.1 9 Este 21 Sudeste 0 -- -- 90
2017-07-24 00:00:00 15 13 Este 31 Este 0 -- -- 89
2017-07-23 23:00:00 15 17 Este 31 Este 0 -- -- 88
2017-07-23 22:00:00 15.9 14 Este 30 Este 0 -- -- 84
2017-07-23 21:00:00 17.9 16 Este 32 Este 0 -- -- 75
2017-07-23 20:00:00 20.2 19 Este 34 Este 0 -- -- 67
2017-07-23 19:00:00 20.7 19 Este 32 Este 0 -- -- 64
2017-07-23 18:00:00 22 19 Este 41 Este 0 -- -- 59
2017-07-23 17:00:00 24.1 15 Este 33 Sudeste 0 -- -- 50
2017-07-23 16:00:00 25.1 6 Sudeste 26 Sudeste 0 -- -- 40
2017-07-23 15:00:00 24.2 9 Sudeste 19 Este 0 -- -- 45
2017-07-23 14:00:00 22.7 9 Sudeste 19 Sudeste 0 -- -- 48
2017-07-23 13:00:00 20.2 11 Sudeste 23 Este 0 -- -- 54
2017-07-23 12:00:00 18.5 9 Sudeste 20 Sudeste 0 -- -- 58
2017-07-23 11:00:00 16.1 6 Este 17 Sudeste 0 -- -- 67
2017-07-23 10:00:00 13.7 6 Este 20 Este 0 -- -- 78
2017-07-23 09:00:00 11.5 12 Sudeste 22 Sudeste 0 -- -- 88
2017-07-23 08:00:00 9.2 3 Este 10 Sudeste 0 -- -- 96
2017-07-23 07:00:00 9.3 5 Nordeste 9 Nordeste 0 -- -- 94
2017-07-23 06:00:00 10.1 6 Nordeste 17 Este 0 -- -- 93
2017-07-23 05:00:00 10.7 8 Este 15 Este 0 -- -- 93
2017-07-23 04:00:00 11.2 5 Este 17 Este 0 -- -- 93
2017-07-23 03:00:00 11.7 10 Este 21 Este 0 -- -- 93
2017-07-23 02:00:00 11.6 10 Este 22 Este 0 -- -- 93
2017-07-23 01:00:00 12.1 12 Este 28 Este 0 -- -- 91
2017-07-23 00:00:00 12.5 14 Este 33 Este 0 -- -- 90
2017-07-22 23:00:00 12.5 16 Este 35 Este 0 -- -- 90
2017-07-22 22:00:00 12.9 18 Este 39 Este 0 -- -- 88
2017-07-22 21:00:00 14.1 20 Este 39 Este 0 -- -- 84
2017-07-22 20:00:00 16.2 19 Este 43 Este 0 -- -- 76
2017-07-22 19:00:00 18.7 20 Este 48 Este 0 -- -- 68
2017-07-22 18:00:00 20.7 26 Este 45 Este 0 -- -- 62
2017-07-22 17:00:00 23.4 23 Este 37 Este 0 -- -- 53
2017-07-22 16:00:00 27 14 Oeste 31 Oeste 0 -- -- 32
2017-07-22 15:00:00 25.4 10 Oeste 30 Oeste 0 -- -- 36
2017-07-22 14:00:00 23.9 8 Oeste 28 Sur 0 -- -- 39
2017-07-22 13:00:00 22 8 Noroeste 39 Sudoeste 0 -- -- 45
2017-07-22 12:00:00 19.1 4 Sur 12 Sudeste 0 -- -- 54
2017-07-22 11:00:00 16.9 4 Sudeste 13 Este 0 -- -- 58
2017-07-22 10:00:00 14.5 6 Sur 10 Sudeste 0 -- -- 76
2017-07-22 09:00:00 11.8 2 Sur 10 Nordeste 0 -- -- 88
2017-07-22 08:00:00 9.3 8 Nordeste 11 Nordeste 0 -- -- 94
2017-07-22 07:00:00 8.7 4 Nordeste 11 Nordeste 0 -- -- 94
2017-07-22 06:00:00 9 3 Nordeste 8 Norte 0 -- -- 93
2017-07-22 05:00:00 9.4 0 Calma 9 Nordeste 0 -- -- 92
2017-07-22 04:00:00 9.5 0 Calma 10 Nordeste 0 -- -- 90
2017-07-22 03:00:00 10.8 3 Nordeste 8 Nordeste 0 -- -- 88
2017-07-22 02:00:00 11.9 4 Nordeste 12 Este 0 -- -- 84
2017-07-22 01:00:00 12.8 3 Este 13 Este 0 -- -- 82
2017-07-22 00:00:00 13.4 9 Este 25 Sudeste 0 -- -- 80
2017-07-21 23:00:00 13.7 5 Este 16 Nordeste 0 -- -- 83
2017-07-21 22:00:00 14.9 9 Este 33 Este 0 -- -- 80
2017-07-21 21:00:00 16.7 13 Este 31 Este 0 -- -- 73
2017-07-21 20:00:00 18.3 16 Este 35 Este 0 -- -- 67
2017-07-21 19:00:00 19.5 20 Este 50 Este 0 -- -- 64
2017-07-21 18:00:00 20 22 Este 39 Este 0 -- -- 62
2017-07-21 17:00:00 20.6 22 Este 40 Este 0 -- -- 61
2017-07-21 16:00:00 21.7 21 Este 37 Este 0 -- -- 57
2017-07-21 15:00:00 22.8 12 Sudeste 25 Este 0 -- -- 50
2017-07-21 14:00:00 20.8 6 Norte 22 Este 0 -- -- 56
2017-07-21 13:00:00 18.5 12 Sudeste 23 Este 0 -- -- 63
2017-07-21 12:00:00 16.7 8 Este 24 Sudeste 0 -- -- 69
2017-07-21 11:00:00 14.8 10 Este 18 Este 0 -- -- 75
2017-07-21 10:00:00 12.9 10 Sudeste 19 Sudeste 0 -- -- 82
2017-07-21 09:00:00 12.1 11 Sudeste 22 Este 0 -- -- 84
2017-07-21 08:00:00 11.7 10 Este 21 Este 0 -- -- 86
2017-07-21 07:00:00 11.6 12 Este 23 Este 0 -- -- 87
2017-07-21 06:00:00 11.5 10 Sudeste 23 Este 0 -- -- 87
2017-07-21 05:00:00 11.8 12 Este 22 Este 0 -- -- 84
2017-07-21 04:00:00 12.1 6 Este 12 Este 0 -- -- 83
2017-07-21 03:00:00 11.7 6 Nordeste 23 Este 0 -- -- 85
2017-07-21 02:00:00 11.6 12 Este 26 Este 0 -- -- 87
2017-07-21 01:00:00 11.6 15 Este 28 Este 0 -- -- 87
2017-07-21 00:00:00 11.2 14 Este 27 Sudeste 0 -- -- 89
2017-07-20 23:00:00 11.4 15 Este 39 Sudeste 0 -- -- 87
2017-07-20 22:00:00 11.8 16 Este 34 Este 0 -- -- 86
2017-07-20 21:00:00 12.9 17 Este 36 Este 0 -- -- 81
2017-07-20 20:00:00 15 18 Este 35 Este 0 -- -- 73
2017-07-20 19:00:00 16.8 18 Este 42 Este 0 -- -- 67
2017-07-20 18:00:00 17.9 17 Este 44 Este 0 -- -- 66
2017-07-20 17:00:00 19.5 18 Este 40 Este 0 -- -- 61
2017-07-20 16:00:00 20.2 18 Este 36 Este 0 -- -- 58
2017-07-20 15:00:00 20.2 16 Este 33 Este 0 -- -- 58
2017-07-20 14:00:00 19.6 16 Este 39 Este 0 -- -- 60
2017-07-20 13:00:00 18.6 17 Este 32 Este 0 -- -- 62
2017-07-20 12:00:00 17.5 18 Este 32 Este 0 -- -- 65
2017-07-20 11:00:00 16.7 21 Este 34 Sudeste 0 -- -- 71
2017-07-20 10:00:00 15.3 18 Este 32 Este 0 -- -- 74
2017-07-20 09:00:00 14.2 9 Este 24 Este 0 -- -- 80
2017-07-20 08:00:00 12.9 9 Este 18 Este 0 -- -- 88
2017-07-20 07:00:00 12.3 8 Este 20 Este 0 -- -- 91
2017-07-20 06:00:00 12.8 10 Este 31 Sudeste 0 -- -- 90
2017-07-20 05:00:00 13.2 9 Este 23 Sudeste 0 -- -- 90
2017-07-20 04:00:00 13.6 12 Este 26 Este 0 -- -- 91
2017-07-20 03:00:00 13.3 12 Este 26 Este 0 -- -- 92
2017-07-20 02:00:00 13.4 11 Este 23 Este 0 -- -- 91
2017-07-20 01:00:00 13.7 11 Este 20 Este 0 -- -- 90
2017-07-20 00:00:00 13.9 10 Este 22 Este 0 -- -- 90
2017-07-19 23:00:00 14.6 9 Sudeste 23 Este 0 -- -- 85
2017-07-19 22:00:00 15.4 11 Este 26 Este 0 -- -- 86
2017-07-19 21:00:00 16.1 14 Este 30 Este 0 -- -- 87
2017-07-19 20:00:00 17.7 16 Este 35 Este 0 -- -- 79
2017-07-19 19:00:00 19.3 19 Este 42 Este 0 -- -- 72
2017-07-19 18:00:00 23.2 18 Este 35 Este 0 -- -- 57
2017-07-19 17:00:00 28.1 13 Oeste 35 Sur 0 -- -- 35
2017-07-19 16:00:00 27.8 18 Oeste 43 Sudoeste 0 -- -- 34
2017-07-19 15:00:00 27.8 14 Oeste 35 Oeste 0 -- -- 33
2017-07-19 14:00:00 27 16 Oeste 36 Oeste 0 -- -- 32
2017-07-19 13:00:00 25.6 10 Sudoeste 29 Oeste 0 -- -- 41
2017-07-19 12:00:00 24 12 Sudoeste 31 Sur 0 -- -- 48
2017-07-19 11:00:00 21.9 9 Sudoeste 27 Sudoeste 0 -- -- 55
2017-07-19 10:00:00 19.8 8 Sudoeste 24 Oeste 0 -- -- 61
2017-07-19 09:00:00 17.7 9 Oeste 19 Oeste 0 -- -- 71
2017-07-19 08:00:00 12.8 8 Nordeste 12 Nordeste 0 -- -- 87
2017-07-19 07:00:00 13.3 0 Calma 8 Nordeste 0 -- -- 87
2017-07-19 06:00:00 14.8 0 Calma 6 Este 0 -- -- 85
2017-07-19 05:00:00 15.6 0 Calma 5 Nordeste 0 -- -- 85
2017-07-19 04:00:00 15.6 3 Este 21 Este 0 -- -- 86
2017-07-19 03:00:00 15.5 10 Este 28 Este 0 -- -- 86
2017-07-19 02:00:00 16.7 3 Sur 12 Este 0 -- -- 75
2017-07-19 01:00:00 17.4 7 Nordeste 13 Este 0 -- -- 59
2017-07-19 00:00:00 20.3 3 Noroeste 12 Noroeste 0 -- -- 35